Jonathan, Mississippi
Current Conditions -  °F | °C
As of 11:56 PM on Thursday 30 Oct 2014 (Local Time) from KMOB Reporting Station
Clear Clear  
Wind Chill:   Ceiling: Unl
Heat Index:   Visibility: 10mi
Dew Point:   Wind: 5mph
Humidity: 86%   Direction: 310°NW
Pressure: 30.04"   Gusts: NA
Location:  31.1153°N, 88.5168°W
Report Text: KMOB 310456Z AUTO 31004KT 10SM CLR 08/06 A3004 RMK AO2 SLP170 T00830061
Loading
Personal Weather Stations






























Interactive Weather Map
Tropical Storm Tracking
New forecast layout! Learn more

10-Day Weather Forecast

Advertisements
Track Severe Weather on mobile